sensor_id;sensor_type;location;lat;lon;timestamp;P1;durP1;ratioP1;P2;durP2;ratioP2
59728;SDS011;45588;51.598;5.618;2022-08-01T00:00:24;29.60;;;23.73;;
59728;SDS011;45588;51.598;5.618;2022-08-01T00:02:49;27.38;;;22.00;;
59728;SDS011;45588;51.598;5.618;2022-08-01T00:05:15;33.00;;;23.90;;
59728;SDS011;45588;51.598;5.618;2022-08-01T00:07:40;27.42;;;23.08;;
59728;SDS011;45588;51.598;5.618;2022-08-01T00:10:07;29.02;;;22.48;;
59728;SDS011;45588;51.598;5.618;2022-08-01T00:12:34;30.08;;;23.40;;
59728;SDS011;45588;51.598;5.618;2022-08-01T00:14:59;28.83;;;24.27;;
59728;SDS011;45588;51.598;5.618;2022-08-01T00:17:25;27.70;;;23.17;;
59728;SDS011;45588;51.598;5.618;2022-08-01T00:19:50;29.88;;;24.50;;
59728;SDS011;45588;51.598;5.618;2022-08-01T00:22:16;33.67;;;23.20;;
59728;SDS011;45588;51.598;5.618;2022-08-01T00:24:41;30.13;;;24.10;;
59728;SDS011;45588;51.598;5.618;2022-08-01T00:27:07;34.00;;;24.38;;
59728;SDS011;45588;51.598;5.618;2022-08-01T00:29:32;32.35;;;25.65;;
59728;SDS011;45588;51.598;5.618;2022-08-01T00:31:57;33.28;;;25.77;;
59728;SDS011;45588;51.598;5.618;2022-08-01T00:34:23;33.15;;;25.77;;
59728;SDS011;45588;51.598;5.618;2022-08-01T00:36:48;34.63;;;25.10;;
59728;SDS011;45588;51.598;5.618;2022-08-01T00:39:13;32.17;;;25.98;;
59728;SDS011;45588;51.598;5.618;2022-08-01T00:41:39;31.55;;;26.02;;
59728;SDS011;45588;51.598;5.618;2022-08-01T00:44:04;35.53;;;25.40;;
59728;SDS011;45588;51.598;5.618;2022-08-01T00:46:30;30.63;;;26.45;;
59728;SDS011;45588;51.598;5.618;2022-08-01T00:48:56;32.45;;;26.10;;
59728;SDS011;45588;51.598;5.618;2022-08-01T00:51:22;34.47;;;25.52;;
59728;SDS011;45588;51.598;5.618;2022-08-01T00:53:47;28.65;;;24.58;;
59728;SDS011;45588;51.598;5.618;2022-08-01T00:56:14;33.65;;;25.30;;
59728;SDS011;45588;51.598;5.618;2022-08-01T00:58:40;34.65;;;27.05;;
59728;SDS011;45588;51.598;5.618;2022-08-01T01:01:05;32.47;;;25.30;;
59728;SDS011;45588;51.598;5.618;2022-08-01T01:03:30;34.63;;;25.85;;
59728;SDS011;45588;51.598;5.618;2022-08-01T01:08:53;31.83;;;25.77;;
59728;SDS011;45588;51.598;5.618;2022-08-01T01:11:32;33.85;;;28.20;;
59728;SDS011;45588;51.598;5.618;2022-08-01T01:14:13;32.65;;;26.73;;
59728;SDS011;45588;51.598;5.618;2022-08-01T01:16:46;35.65;;;27.05;;
59728;SDS011;45588;51.598;5.618;2022-08-01T01:19:13;37.30;;;28.25;;
59728;SDS011;45588;51.598;5.618;2022-08-01T01:30:21;26.70;;;20.80;;
59728;SDS011;45588;51.598;5.618;2022-08-01T01:32:49;24.02;;;20.58;;
59728;SDS011;45588;51.598;5.618;2022-08-01T01:35:19;21.65;;;19.20;;
59728;SDS011;45588;51.598;5.618;2022-08-01T01:37:47;22.13;;;19.07;;
59728;SDS011;45588;51.598;5.618;2022-08-01T01:40:19;24.80;;;21.00;;
59728;SDS011;45588;51.598;5.618;2022-08-01T01:42:45;21.55;;;17.88;;
59728;SDS011;45588;51.598;5.618;2022-08-01T01:45:12;22.58;;;20.05;;
59728;SDS011;45588;51.598;5.618;2022-08-01T01:47:39;22.30;;;19.52;;
59728;SDS011;45588;51.598;5.618;2022-08-01T01:50:07;26.17;;;19.85;;
59728;SDS011;45588;51.598;5.618;2022-08-01T01:52:35;22.40;;;19.95;;
59728;SDS011;45588;51.598;5.618;2022-08-01T01:55:04;24.33;;;20.73;;
59728;SDS011;45588;51.598;5.618;2022-08-01T01:57:31;22.88;;;20.05;;
59728;SDS011;45588;51.598;5.618;2022-08-01T02:00:00;21.65;;;19.33;;
59728;SDS011;45588;51.598;5.618;2022-08-01T02:02:26;27.50;;;20.58;;
59728;SDS011;45588;51.598;5.618;2022-08-01T02:04:52;22.38;;;18.33;;
59728;SDS011;45588;51.598;5.618;2022-08-01T02:07:20;22.70;;;17.83;;
59728;SDS011;45588;51.598;5.618;2022-08-01T02:09:49;21.17;;;18.50;;
59728;SDS011;45588;51.598;5.618;2022-08-01T02:12:17;22.50;;;18.50;;
59728;SDS011;45588;51.598;5.618;2022-08-01T02:14:44;19.73;;;16.10;;
59728;SDS011;45588;51.598;5.618;2022-08-01T02:17:12;23.23;;;18.60;;
59728;SDS011;45588;51.598;5.618;2022-08-01T02:19:41;21.17;;;17.25;;
59728;SDS011;45588;51.598;5.618;2022-08-01T02:22:11;25.55;;;19.15;;
59728;SDS011;45588;51.598;5.618;2022-08-01T02:24:45;23.55;;;18.30;;
59728;SDS011;45588;51.598;5.618;2022-08-01T02:27:17;22.08;;;17.95;;
59728;SDS011;45588;51.598;5.618;2022-08-01T02:29:55;18.85;;;14.38;;
59728;SDS011;45588;51.598;5.618;2022-08-01T02:32:25;20.40;;;16.85;;
59728;SDS011;45588;51.598;5.618;2022-08-01T02:37:22;20.40;;;16.77;;
59728;SDS011;45588;51.598;5.618;2022-08-01T02:39:51;19.25;;;16.65;;
59728;SDS011;45588;51.598;5.618;2022-08-01T02:42:19;20.15;;;17.45;;
59728;SDS011;45588;51.598;5.618;2022-08-01T02:44:46;20.40;;;16.13;;
59728;SDS011;45588;51.598;5.618;2022-08-01T02:47:14;20.85;;;17.02;;
59728;SDS011;45588;51.598;5.618;2022-08-01T02:49:42;21.63;;;17.58;;
59728;SDS011;45588;51.598;5.618;2022-08-01T02:52:12;20.58;;;18.35;;
59728;SDS011;45588;51.598;5.618;2022-08-01T02:54:39;21.00;;;18.00;;
59728;SDS011;45588;51.598;5.618;2022-08-01T02:57:07;23.27;;;17.67;;
59728;SDS011;45588;51.598;5.618;2022-08-01T02:59:33;19.02;;;15.95;;
59728;SDS011;45588;51.598;5.618;2022-08-01T03:02:02;22.55;;;17.42;;
59728;SDS011;45588;51.598;5.618;2022-08-01T03:04:29;19.15;;;16.17;;
59728;SDS011;45588;51.598;5.618;2022-08-01T03:06:58;22.52;;;17.73;;
59728;SDS011;45588;51.598;5.618;2022-08-01T03:09:27;20.40;;;17.08;;
59728;SDS011;45588;51.598;5.618;2022-08-01T03:11:54;20.38;;;17.33;;
59728;SDS011;45588;51.598;5.618;2022-08-01T03:14:24;20.95;;;17.30;;
59728;SDS011;45588;51.598;5.618;2022-08-01T03:16:51;23.48;;;17.27;;
59728;SDS011;45588;51.598;5.618;2022-08-01T03:19:18;23.23;;;17.55;;
59728;SDS011;45588;51.598;5.618;2022-08-01T03:21:45;20.15;;;15.52;;
59728;SDS011;45588;51.598;5.618;2022-08-01T03:24:13;22.42;;;16.63;;
59728;SDS011;45588;51.598;5.618;2022-08-01T03:26:39;21.63;;;16.55;;
59728;SDS011;45588;51.598;5.618;2022-08-01T03:29:08;21.25;;;16.55;;
59728;SDS011;45588;51.598;5.618;2022-08-01T03:31:37;22.05;;;17.10;;
59728;SDS011;45588;51.598;5.618;2022-08-01T03:34:03;22.90;;;17.05;;
59728;SDS011;45588;51.598;5.618;2022-08-01T03:36:30;23.00;;;18.33;;
59728;SDS011;45588;51.598;5.618;2022-08-01T03:39:00;24.05;;;18.25;;
59728;SDS011;45588;51.598;5.618;2022-08-01T03:41:29;27.85;;;19.27;;
59728;SDS011;45588;51.598;5.618;2022-08-01T03:44:02;27.95;;;19.52;;
59728;SDS011;45588;51.598;5.618;2022-08-01T03:46:33;29.08;;;20.02;;
59728;SDS011;45588;51.598;5.618;2022-08-01T03:49:05;24.17;;;17.88;;
59728;SDS011;45588;51.598;5.618;2022-08-01T03:51:43;25.50;;;17.88;;
59728;SDS011;45588;51.598;5.618;2022-08-01T03:54:14;26.35;;;18.27;;
59728;SDS011;45588;51.598;5.618;2022-08-01T03:56:41;23.65;;;17.80;;
59728;SDS011;45588;51.598;5.618;2022-08-01T03:59:08;23.75;;;18.80;;
59728;SDS011;45588;51.598;5.618;2022-08-01T04:01:34;25.80;;;19.45;;
59728;SDS011;45588;51.598;5.618;2022-08-01T04:04:00;26.77;;;18.15;;
59728;SDS011;45588;51.598;5.618;2022-08-01T04:06:26;23.08;;;16.88;;
59728;SDS011;45588;51.598;5.618;2022-08-01T04:08:51;20.25;;;16.42;;
59728;SDS011;45588;51.598;5.618;2022-08-01T04:11:21;25.50;;;18.38;;
59728;SDS011;45588;51.598;5.618;2022-08-01T04:13:48;23.40;;;18.02;;
59728;SDS011;45588;51.598;5.618;2022-08-01T04:16:13;25.33;;;17.52;;
59728;SDS011;45588;51.598;5.618;2022-08-01T04:18:39;26.38;;;18.80;;
59728;SDS011;45588;51.598;5.618;2022-08-01T04:21:04;23.88;;;19.08;;
59728;SDS011;45588;51.598;5.618;2022-08-01T04:23:30;26.63;;;18.80;;
59728;SDS011;45588;51.598;5.618;2022-08-01T04:25:57;27.40;;;19.27;;
59728;SDS011;45588;51.598;5.618;2022-08-01T04:28:24;23.98;;;17.88;;
59728;SDS011;45588;51.598;5.618;2022-08-01T04:30:50;24.67;;;16.90;;
59728;SDS011;45588;51.598;5.618;2022-08-01T04:33:20;25.65;;;17.48;;
59728;SDS011;45588;51.598;5.618;2022-08-01T04:35:47;26.30;;;18.42;;
59728;SDS011;45588;51.598;5.618;2022-08-01T04:38:15;23.05;;;15.80;;
59728;SDS011;45588;51.598;5.618;2022-08-01T04:40:44;18.23;;;8.63;;
59728;SDS011;45588;51.598;5.618;2022-08-01T04:43:13;25.50;;;18.45;;
59728;SDS011;45588;51.598;5.618;2022-08-01T04:45:39;25.02;;;18.00;;
59728;SDS011;45588;51.598;5.618;2022-08-01T04:48:05;22.10;;;15.95;;
59728;SDS011;45588;51.598;5.618;2022-08-01T04:50:32;21.95;;;15.73;;
59728;SDS011;45588;51.598;5.618;2022-08-01T04:52:59;22.20;;;14.63;;
59728;SDS011;45588;51.598;5.618;2022-08-01T04:55:27;22.10;;;15.07;;
59728;SDS011;45588;51.598;5.618;2022-08-01T04:57:53;24.88;;;17.13;;
59728;SDS011;45588;51.598;5.618;2022-08-01T05:00:18;21.17;;;14.20;;
59728;SDS011;45588;51.598;5.618;2022-08-01T05:02:43;22.15;;;17.13;;
59728;SDS011;45588;51.598;5.618;2022-08-01T05:05:09;24.00;;;16.98;;
59728;SDS011;45588;51.598;5.618;2022-08-01T05:07:35;22.17;;;13.93;;
59728;SDS011;45588;51.598;5.618;2022-08-01T05:10:02;19.75;;;14.85;;
59728;SDS011;45588;51.598;5.618;2022-08-01T05:12:28;23.10;;;12.85;;
59728;SDS011;45588;51.598;5.618;2022-08-01T05:14:53;22.13;;;15.75;;
59728;SDS011;45588;51.598;5.618;2022-08-01T05:17:19;23.95;;;17.35;;
59728;SDS011;45588;51.598;5.618;2022-08-01T05:19:44;22.88;;;14.88;;
59728;SDS011;45588;51.598;5.618;2022-08-01T05:22:10;21.92;;;15.18;;
59728;SDS011;45588;51.598;5.618;2022-08-01T05:24:36;24.77;;;14.77;;
59728;SDS011;45588;51.598;5.618;2022-08-01T05:27:02;20.20;;;15.88;;
59728;SDS011;45588;51.598;5.618;2022-08-01T05:29:28;23.10;;;15.98;;
59728;SDS011;45588;51.598;5.618;2022-08-01T05:31:54;21.60;;;15.30;;
59728;SDS011;45588;51.598;5.618;2022-08-01T05:34:20;22.20;;;15.80;;
59728;SDS011;45588;51.598;5.618;2022-08-01T05:36:46;22.70;;;16.92;;
59728;SDS011;45588;51.598;5.618;2022-08-01T05:39:11;23.92;;;15.68;;
59728;SDS011;45588;51.598;5.618;2022-08-01T05:41:37;21.48;;;14.95;;
59728;SDS011;45588;51.598;5.618;2022-08-01T05:44:03;21.92;;;16.33;;
59728;SDS011;45588;51.598;5.618;2022-08-01T05:46:29;19.35;;;15.45;;
59728;SDS011;45588;51.598;5.618;2022-08-01T05:48:56;17.75;;;13.98;;
59728;SDS011;45588;51.598;5.618;2022-08-01T05:51:24;21.35;;;16.15;;
59728;SDS011;45588;51.598;5.618;2022-08-01T05:53:50;20.10;;;15.70;;
59728;SDS011;45588;51.598;5.618;2022-08-01T05:56:16;16.98;;;13.38;;
59728;SDS011;45588;51.598;5.618;2022-08-01T05:58:41;20.90;;;17.45;;
59728;SDS011;45588;51.598;5.618;2022-08-01T06:01:07;23.60;;;16.70;;
59728;SDS011;45588;51.598;5.618;2022-08-01T06:03:32;25.33;;;18.08;;
59728;SDS011;45588;51.598;5.618;2022-08-01T06:05:58;19.65;;;15.68;;
59728;SDS011;45588;51.598;5.618;2022-08-01T06:08:24;21.67;;;18.67;;
59728;SDS011;45588;51.598;5.618;2022-08-01T06:10:50;23.20;;;19.95;;
59728;SDS011;45588;51.598;5.618;2022-08-01T06:13:15;21.65;;;16.42;;
59728;SDS011;45588;51.598;5.618;2022-08-01T06:15:40;20.60;;;16.15;;
59728;SDS011;45588;51.598;5.618;2022-08-01T06:18:06;22.98;;;17.00;;
59728;SDS011;45588;51.598;5.618;2022-08-01T06:20:31;16.88;;;14.63;;
59728;SDS011;45588;51.598;5.618;2022-08-01T06:22:56;33.10;;;24.85;;
59728;SDS011;45588;51.598;5.618;2022-08-01T06:25:21;21.85;;;16.90;;
59728;SDS011;45588;51.598;5.618;2022-08-01T06:27:47;22.85;;;15.57;;
59728;SDS011;45588;51.598;5.618;2022-08-01T06:30:13;27.58;;;18.80;;
59728;SDS011;45588;51.598;5.618;2022-08-01T06:32:38;20.27;;;15.73;;
59728;SDS011;45588;51.598;5.618;2022-08-01T06:35:04;19.33;;;15.07;;
59728;SDS011;45588;51.598;5.618;2022-08-01T06:37:30;16.38;;;14.50;;
59728;SDS011;45588;51.598;5.618;2022-08-01T06:40:00;15.90;;;14.20;;
59728;SDS011;45588;51.598;5.618;2022-08-01T06:42:28;15.13;;;13.52;;
59728;SDS011;45588;51.598;5.618;2022-08-01T06:44:56;16.88;;;13.82;;
59728;SDS011;45588;51.598;5.618;2022-08-01T06:47:22;18.85;;;15.18;;
59728;SDS011;45588;51.598;5.618;2022-08-01T06:49:47;16.02;;;13.02;;
59728;SDS011;45588;51.598;5.618;2022-08-01T06:52:12;16.50;;;14.48;;
59728;SDS011;45588;51.598;5.618;2022-08-01T06:54:38;13.80;;;12.27;;
59728;SDS011;45588;51.598;5.618;2022-08-01T06:57:04;11.27;;;10.18;;
59728;SDS011;45588;51.598;5.618;2022-08-01T06:59:30;10.27;;;9.27;;
59728;SDS011;45588;51.598;5.618;2022-08-01T07:01:55;11.75;;;10.75;;
59728;SDS011;45588;51.598;5.618;2022-08-01T07:04:21;11.52;;;10.43;;
59728;SDS011;45588;51.598;5.618;2022-08-01T07:06:46;10.82;;;9.73;;
59728;SDS011;45588;51.598;5.618;2022-08-01T07:09:11;10.25;;;9.15;;
59728;SDS011;45588;51.598;5.618;2022-08-01T07:11:37;10.00;;;9.10;;
59728;SDS011;45588;51.598;5.618;2022-08-01T07:14:02;12.63;;;10.07;;
59728;SDS011;45588;51.598;5.618;2022-08-01T07:16:28;10.98;;;9.02;;
59728;SDS011;45588;51.598;5.618;2022-08-01T07:18:53;18.40;;;15.57;;
59728;SDS011;45588;51.598;5.618;2022-08-01T07:21:18;17.50;;;14.15;;
59728;SDS011;45588;51.598;5.618;2022-08-01T07:23:44;10.88;;;9.68;;
59728;SDS011;45588;51.598;5.618;2022-08-01T07:26:09;10.50;;;8.88;;
59728;SDS011;45588;51.598;5.618;2022-08-01T07:28:34;9.73;;;8.65;;
59728;SDS011;45588;51.598;5.618;2022-08-01T07:30:59;9.57;;;8.50;;
59728;SDS011;45588;51.598;5.618;2022-08-01T07:33:25;9.57;;;8.63;;
59728;SDS011;45588;51.598;5.618;2022-08-01T07:35:50;12.63;;;11.32;;
59728;SDS011;45588;51.598;5.618;2022-08-01T07:38:15;10.25;;;8.57;;
59728;SDS011;45588;51.598;5.618;2022-08-01T07:40:42;9.25;;;8.35;;
59728;SDS011;45588;51.598;5.618;2022-08-01T07:43:08;9.68;;;8.68;;
59728;SDS011;45588;51.598;5.618;2022-08-01T07:45:33;10.80;;;8.32;;
59728;SDS011;45588;51.598;5.618;2022-08-01T07:48:05;11.27;;;10.18;;
59728;SDS011;45588;51.598;5.618;2022-08-01T07:50:31;9.52;;;8.65;;
59728;SDS011;45588;51.598;5.618;2022-08-01T07:52:56;10.23;;;9.32;;
59728;SDS011;45588;51.598;5.618;2022-08-01T07:55:22;10.50;;;9.25;;
59728;SDS011;45588;51.598;5.618;2022-08-01T07:57:47;10.82;;;9.20;;
59728;SDS011;45588;51.598;5.618;2022-08-01T08:00:12;9.98;;;8.80;;
59728;SDS011;45588;51.598;5.618;2022-08-01T08:02:38;12.60;;;9.35;;
59728;SDS011;45588;51.598;5.618;2022-08-01T08:05:04;10.80;;;9.60;;
59728;SDS011;45588;51.598;5.618;2022-08-01T08:07:31;10.70;;;9.65;;
59728;SDS011;45588;51.598;5.618;2022-08-01T08:09:56;10.43;;;9.43;;
59728;SDS011;45588;51.598;5.618;2022-08-01T08:12:22;9.80;;;8.88;;
59728;SDS011;45588;51.598;5.618;2022-08-01T08:14:47;8.90;;;8.10;;
59728;SDS011;45588;51.598;5.618;2022-08-01T08:17:13;9.45;;;7.57;;
59728;SDS011;45588;51.598;5.618;2022-08-01T08:19:38;8.63;;;7.93;;
59728;SDS011;45588;51.598;5.618;2022-08-01T08:22:05;9.40;;;8.50;;
59728;SDS011;45588;51.598;5.618;2022-08-01T08:24:32;8.63;;;7.60;;
59728;SDS011;45588;51.598;5.618;2022-08-01T08:26:57;8.60;;;7.70;;
59728;SDS011;45588;51.598;5.618;2022-08-01T08:29:25;8.75;;;7.95;;
59728;SDS011;45588;51.598;5.618;2022-08-01T08:31:52;9.23;;;8.32;;
59728;SDS011;45588;51.598;5.618;2022-08-01T08:34:19;10.18;;;9.27;;
59728;SDS011;45588;51.598;5.618;2022-08-01T08:36:45;10.57;;;9.55;;
59728;SDS011;45588;51.598;5.618;2022-08-01T08:39:11;12.65;;;11.35;;
59728;SDS011;45588;51.598;5.618;2022-08-01T08:41:36;12.60;;;11.40;;
59728;SDS011;45588;51.598;5.618;2022-08-01T08:44:05;12.02;;;10.95;;
59728;SDS011;45588;51.598;5.618;2022-08-01T08:46:31;11.05;;;9.90;;
59728;SDS011;45588;51.598;5.618;2022-08-01T08:49:01;10.68;;;9.63;;
59728;SDS011;45588;51.598;5.618;2022-08-01T08:51:30;10.13;;;9.23;;
59728;SDS011;45588;51.598;5.618;2022-08-01T08:53:58;12.67;;;11.50;;
59728;SDS011;45588;51.598;5.618;2022-08-01T08:56:25;13.00;;;11.65;;
59728;SDS011;45588;51.598;5.618;2022-08-01T08:58:54;11.10;;;10.10;;
59728;SDS011;45588;51.598;5.618;2022-08-01T09:01:20;12.25;;;11.13;;
59728;SDS011;45588;51.598;5.618;2022-08-01T09:03:45;11.88;;;10.77;;
59728;SDS011;45588;51.598;5.618;2022-08-01T09:06:12;10.48;;;9.57;;
59728;SDS011;45588;51.598;5.618;2022-08-01T09:08:37;8.45;;;7.70;;
59728;SDS011;45588;51.598;5.618;2022-08-01T09:11:03;7.88;;;7.25;;
59728;SDS011;45588;51.598;5.618;2022-08-01T09:13:28;8.32;;;7.63;;
59728;SDS011;45588;51.598;5.618;2022-08-01T09:15:54;7.70;;;7.00;;
59728;SDS011;45588;51.598;5.618;2022-08-01T09:18:27;7.47;;;6.78;;
59728;SDS011;45588;51.598;5.618;2022-08-01T09:21:07;7.80;;;7.10;;
59728;SDS011;45588;51.598;5.618;2022-08-01T09:23:38;8.20;;;7.40;;
59728;SDS011;45588;51.598;5.618;2022-08-01T09:26:07;7.03;;;6.40;;
59728;SDS011;45588;51.598;5.618;2022-08-01T09:28:33;7.20;;;6.50;;
59728;SDS011;45588;51.598;5.618;2022-08-01T09:30:59;6.82;;;6.22;;
59728;SDS011;45588;51.598;5.618;2022-08-01T09:33:50;7.88;;;7.13;;
59728;SDS011;45588;51.598;5.618;2022-08-01T09:36:24;6.53;;;5.93;;
59728;SDS011;45588;51.598;5.618;2022-08-01T09:38:51;6.53;;;5.93;;
59728;SDS011;45588;51.598;5.618;2022-08-01T09:41:17;6.93;;;6.05;;
59728;SDS011;45588;51.598;5.618;2022-08-01T09:43:54;6.75;;;6.05;;
59728;SDS011;45588;51.598;5.618;2022-08-01T09:46:20;7.68;;;5.57;;
59728;SDS011;45588;51.598;5.618;2022-08-01T09:48:56;6.13;;;4.30;;
59728;SDS011;45588;51.598;5.618;2022-08-01T09:51:33;5.53;;;5.13;;
59728;SDS011;45588;51.598;5.618;2022-08-01T09:54:00;4.50;;;4.13;;
59728;SDS011;45588;51.598;5.618;2022-08-01T09:56:35;4.15;;;3.75;;
59728;SDS011;45588;51.598;5.618;2022-08-01T09:59:01;4.57;;;3.58;;
59728;SDS011;45588;51.598;5.618;2022-08-01T10:01:27;4.63;;;4.15;;
59728;SDS011;45588;51.598;5.618;2022-08-01T10:04:20;4.32;;;4.03;;
59728;SDS011;45588;51.598;5.618;2022-08-01T10:06:48;3.92;;;3.67;;
59728;SDS011;45588;51.598;5.618;2022-08-01T10:09:28;4.10;;;3.80;;
59728;SDS011;45588;51.598;5.618;2022-08-01T10:11:55;4.40;;;3.35;;
59728;SDS011;45588;51.598;5.618;2022-08-01T10:14:24;3.30;;;3.05;;
59728;SDS011;45588;51.598;5.618;2022-08-01T10:16:51;3.42;;;3.05;;
59728;SDS011;45588;51.598;5.618;2022-08-01T10:19:18;3.30;;;3.00;;
59728;SDS011;45588;51.598;5.618;2022-08-01T10:21:46;4.40;;;3.72;;
59728;SDS011;45588;51.598;5.618;2022-08-01T10:24:15;3.10;;;2.80;;
59728;SDS011;45588;51.598;5.618;2022-08-01T10:26:42;2.97;;;2.28;;
59728;SDS011;45588;51.598;5.618;2022-08-01T10:29:08;2.97;;;2.45;;
59728;SDS011;45588;51.598;5.618;2022-08-01T10:31:34;3.13;;;2.22;;
59728;SDS011;45588;51.598;5.618;2022-08-01T10:34:01;3.28;;;1.98;;
59728;SDS011;45588;51.598;5.618;2022-08-01T10:36:27;2.78;;;1.95;;
59728;SDS011;45588;51.598;5.618;2022-08-01T10:38:53;2.97;;;2.10;;
59728;SDS011;45588;51.598;5.618;2022-08-01T10:41:19;3.30;;;2.30;;
59728;SDS011;45588;51.598;5.618;2022-08-01T10:43:45;3.13;;;2.63;;
59728;SDS011;45588;51.598;5.618;2022-08-01T10:46:12;2.70;;;2.25;;
59728;SDS011;45588;51.598;5.618;2022-08-01T10:48:55;2.60;;;2.40;;
59728;SDS011;45588;51.598;5.618;2022-08-01T10:51:23;4.10;;;2.70;;
59728;SDS011;45588;51.598;5.618;2022-08-01T10:53:52;2.60;;;2.40;;
59728;SDS011;45588;51.598;5.618;2022-08-01T10:56:19;2.75;;;2.45;;
59728;SDS011;45588;51.598;5.618;2022-08-01T10:58:49;2.95;;;2.45;;
59728;SDS011;45588;51.598;5.618;2022-08-01T11:06:35;2.83;;;2.33;;
59728;SDS011;45588;51.598;5.618;2022-08-01T11:14:30;4.07;;;2.45;;
59728;SDS011;45588;51.598;5.618;2022-08-01T11:16:56;2.00;;;1.90;;
59728;SDS011;45588;51.598;5.618;2022-08-01T11:22:30;5.28;;;1.80;;
59728;SDS011;45588;51.598;5.618;2022-08-01T11:24:55;1.95;;;1.50;;
59728;SDS011;45588;51.598;5.618;2022-08-01T11:27:28;2.85;;;1.77;;
59728;SDS011;45588;51.598;5.618;2022-08-01T11:32:45;3.30;;;2.03;;
59728;SDS011;45588;51.598;5.618;2022-08-01T11:35:12;2.28;;;1.90;;
59728;SDS011;45588;51.598;5.618;2022-08-01T11:37:37;4.07;;;2.28;;
59728;SDS011;45588;51.598;5.618;2022-08-01T11:45:58;4.43;;;2.50;;
59728;SDS011;45588;51.598;5.618;2022-08-01T11:48:23;3.63;;;2.47;;
59728;SDS011;45588;51.598;5.618;2022-08-01T11:50:56;3.08;;;2.10;;
59728;SDS011;45588;51.598;5.618;2022-08-01T11:53:22;2.75;;;2.25;;
59728;SDS011;45588;51.598;5.618;2022-08-01T11:55:49;5.00;;;2.88;;
59728;SDS011;45588;51.598;5.618;2022-08-01T11:58:16;4.95;;;2.35;;
59728;SDS011;45588;51.598;5.618;2022-08-01T12:00:50;4.43;;;2.00;;
59728;SDS011;45588;51.598;5.618;2022-08-01T12:03:20;3.65;;;2.33;;
59728;SDS011;45588;51.598;5.618;2022-08-01T12:05:49;2.40;;;2.20;;
59728;SDS011;45588;51.598;5.618;2022-08-01T12:08:14;5.13;;;2.13;;
59728;SDS011;45588;51.598;5.618;2022-08-01T12:10:49;4.78;;;2.65;;
59728;SDS011;45588;51.598;5.618;2022-08-01T12:13:15;5.55;;;2.47;;
59728;SDS011;45588;51.598;5.618;2022-08-01T12:15:40;6.38;;;2.50;;
59728;SDS011;45588;51.598;5.618;2022-08-01T12:18:06;4.07;;;2.53;;
59728;SDS011;45588;51.598;5.618;2022-08-01T12:20:33;5.22;;;2.30;;
59728;SDS011;45588;51.598;5.618;2022-08-01T12:23:00;3.97;;;2.38;;
59728;SDS011;45588;51.598;5.618;2022-08-01T12:25:28;6.30;;;2.38;;
59728;SDS011;45588;51.598;5.618;2022-08-01T12:27:54;2.85;;;2.30;;
59728;SDS011;45588;51.598;5.618;2022-08-01T12:30:21;4.15;;;2.17;;
59728;SDS011;45588;51.598;5.618;2022-08-01T12:32:49;5.60;;;2.40;;
59728;SDS011;45588;51.598;5.618;2022-08-01T12:35:15;4.13;;;2.13;;
59728;SDS011;45588;51.598;5.618;2022-08-01T12:37:46;4.18;;;2.33;;
59728;SDS011;45588;51.598;5.618;2022-08-01T12:40:14;4.53;;;2.35;;
59728;SDS011;45588;51.598;5.618;2022-08-01T12:42:42;3.42;;;1.95;;
59728;SDS011;45588;51.598;5.618;2022-08-01T12:45:09;6.55;;;1.85;;
59728;SDS011;45588;51.598;5.618;2022-08-01T12:47:37;5.90;;;2.25;;
59728;SDS011;45588;51.598;5.618;2022-08-01T12:50:07;4.30;;;2.58;;
59728;SDS011;45588;51.598;5.618;2022-08-01T12:52:36;4.32;;;2.80;;
59728;SDS011;45588;51.598;5.618;2022-08-01T12:55:21;4.10;;;2.47;;
59728;SDS011;45588;51.598;5.618;2022-08-01T12:58:02;3.90;;;2.50;;
59728;SDS011;45588;51.598;5.618;2022-08-01T13:00:29;6.55;;;2.85;;
59728;SDS011;45588;51.598;5.618;2022-08-01T13:03:06;5.40;;;2.80;;
59728;SDS011;45588;51.598;5.618;2022-08-01T13:05:46;6.18;;;2.67;;
59728;SDS011;45588;51.598;5.618;2022-08-01T13:08:29;6.95;;;2.95;;
59728;SDS011;45588;51.598;5.618;2022-08-01T13:11:01;7.15;;;3.50;;
59728;SDS011;45588;51.598;5.618;2022-08-01T13:13:41;5.25;;;2.90;;
59728;SDS011;45588;51.598;5.618;2022-08-01T13:16:08;5.22;;;3.15;;
59728;SDS011;45588;51.598;5.618;2022-08-01T13:18:35;6.05;;;2.97;;
59728;SDS011;45588;51.598;5.618;2022-08-01T13:21:11;3.78;;;2.63;;
59728;SDS011;45588;51.598;5.618;2022-08-01T13:23:41;5.95;;;2.65;;
59728;SDS011;45588;51.598;5.618;2022-08-01T13:29:14;11.23;;;3.10;;
59728;SDS011;45588;51.598;5.618;2022-08-01T13:31:41;9.65;;;3.10;;
59728;SDS011;45588;51.598;5.618;2022-08-01T13:34:08;5.72;;;2.55;;
59728;SDS011;45588;51.598;5.618;2022-08-01T13:36:33;4.50;;;2.50;;
59728;SDS011;45588;51.598;5.618;2022-08-01T13:38:59;3.80;;;2.33;;
59728;SDS011;45588;51.598;5.618;2022-08-01T13:41:44;4.43;;;2.83;;
59728;SDS011;45588;51.598;5.618;2022-08-01T13:44:11;6.10;;;2.90;;
59728;SDS011;45588;51.598;5.618;2022-08-01T13:46:37;3.30;;;2.80;;
59728;SDS011;45588;51.598;5.618;2022-08-01T13:49:03;4.85;;;2.28;;
59728;SDS011;45588;51.598;5.618;2022-08-01T13:51:30;8.75;;;3.00;;
59728;SDS011;45588;51.598;5.618;2022-08-01T13:53:55;5.68;;;2.83;;
59728;SDS011;45588;51.598;5.618;2022-08-01T13:56:21;3.97;;;2.25;;
59728;SDS011;45588;51.598;5.618;2022-08-01T13:58:46;4.68;;;2.28;;
59728;SDS011;45588;51.598;5.618;2022-08-01T14:01:12;6.38;;;3.15;;
59728;SDS011;45588;51.598;5.618;2022-08-01T14:03:38;7.55;;;2.67;;
59728;SDS011;45588;51.598;5.618;2022-08-01T14:06:03;6.18;;;3.45;;
59728;SDS011;45588;51.598;5.618;2022-08-01T14:08:29;6.50;;;2.95;;
59728;SDS011;45588;51.598;5.618;2022-08-01T14:10:55;4.88;;;2.80;;
59728;SDS011;45588;51.598;5.618;2022-08-01T14:13:23;5.13;;;2.47;;
59728;SDS011;45588;51.598;5.618;2022-08-01T14:15:51;8.30;;;3.58;;
59728;SDS011;45588;51.598;5.618;2022-08-01T14:18:17;8.20;;;3.28;;
59728;SDS011;45588;51.598;5.618;2022-08-01T14:20:42;7.20;;;3.30;;
59728;SDS011;45588;51.598;5.618;2022-08-01T14:23:08;8.07;;;3.58;;
59728;SDS011;45588;51.598;5.618;2022-08-01T14:25:35;5.40;;;3.10;;
59728;SDS011;45588;51.598;5.618;2022-08-01T14:28:01;6.47;;;2.70;;
59728;SDS011;45588;51.598;5.618;2022-08-01T14:30:26;7.28;;;2.65;;
59728;SDS011;45588;51.598;5.618;2022-08-01T14:32:51;8.55;;;3.00;;
59728;SDS011;45588;51.598;5.618;2022-08-01T14:35:17;7.93;;;2.85;;
59728;SDS011;45588;51.598;5.618;2022-08-01T14:37:42;5.05;;;2.75;;
59728;SDS011;45588;51.598;5.618;2022-08-01T14:40:07;6.60;;;3.00;;
59728;SDS011;45588;51.598;5.618;2022-08-01T14:42:34;5.72;;;3.08;;
59728;SDS011;45588;51.598;5.618;2022-08-01T14:45:01;5.90;;;2.85;;
59728;SDS011;45588;51.598;5.618;2022-08-01T14:47:27;6.43;;;3.03;;
59728;SDS011;45588;51.598;5.618;2022-08-01T14:49:52;8.88;;;3.38;;
59728;SDS011;45588;51.598;5.618;2022-08-01T14:52:17;5.80;;;3.15;;
59728;SDS011;45588;51.598;5.618;2022-08-01T14:54:44;5.85;;;3.05;;
59728;SDS011;45588;51.598;5.618;2022-08-01T14:57:09;4.10;;;2.70;;
59728;SDS011;45588;51.598;5.618;2022-08-01T14:59:34;8.85;;;3.45;;
59728;SDS011;45588;51.598;5.618;2022-08-01T15:02:00;9.07;;;3.25;;
59728;SDS011;45588;51.598;5.618;2022-08-01T15:04:26;5.78;;;2.88;;
59728;SDS011;45588;51.598;5.618;2022-08-01T15:06:51;9.02;;;3.35;;
59728;SDS011;45588;51.598;5.618;2022-08-01T15:09:16;10.00;;;3.45;;
59728;SDS011;45588;51.598;5.618;2022-08-01T15:11:41;6.88;;;3.00;;
59728;SDS011;45588;51.598;5.618;2022-08-01T15:14:07;7.60;;;3.20;;